createdAt,value
2022-08-03T00:00:15.992Z,15.74
2022-08-03T00:05:17.871Z,15.72
2022-08-03T00:10:19.732Z,15.70
2022-08-03T00:15:21.661Z,15.66
2022-08-03T00:20:25.460Z,15.63
2022-08-03T00:25:27.464Z,15.61
2022-08-03T00:30:30.903Z,15.57
2022-08-03T00:35:50.199Z,15.51
2022-08-03T00:40:53.331Z,15.45
2022-08-03T00:45:57.268Z,15.39
2022-08-03T00:50:59.444Z,15.38
2022-08-03T00:56:01.434Z,15.35
2022-08-03T01:01:07.191Z,15.31
2022-08-03T01:06:29.665Z,15.32
2022-08-03T01:11:31.621Z,15.28
2022-08-03T01:16:40.301Z,15.23
2022-08-03T01:22:05.655Z,15.17
2022-08-03T01:27:09.635Z,15.07
2022-08-03T01:32:58.173Z,14.97
2022-08-03T01:37:38.901Z,14.89
2022-08-03T01:42:41.911Z,15.11
2022-08-03T01:47:44.722Z,15.35
2022-08-03T01:52:47.903Z,15.50
2022-08-03T01:58:05.336Z,15.58
2022-08-03T02:03:09.810Z,15.63
2022-08-03T02:08:13.303Z,15.71
2022-08-03T02:13:15.499Z,15.80
2022-08-03T02:18:19.240Z,15.86
2022-08-03T02:23:21.170Z,15.92
2022-08-03T02:28:28.750Z,15.92
2022-08-03T02:33:33.149Z,15.87
2022-08-03T02:38:36.923Z,15.82
2022-08-03T02:44:05.889Z,15.87
2022-08-03T02:49:49.446Z,15.90
2022-08-03T02:54:25.325Z,15.92
2022-08-03T02:59:28.480Z,16.00
2022-08-03T03:04:32.920Z,16.23
2022-08-03T03:09:40.177Z,15.86
2022-08-03T03:14:43.997Z,16.07
2022-08-03T03:19:46.382Z,16.41
2022-08-03T03:24:50.813Z,16.29
2022-08-03T03:29:53.128Z,15.97
2022-08-03T03:34:56.141Z,15.64
2022-08-03T03:39:58.365Z,15.41
2022-08-03T03:45:03.589Z,15.21
2022-08-03T03:50:06.699Z,15.35
2022-08-03T03:55:08.714Z,15.85
2022-08-03T04:00:15.021Z,16.38
2022-08-03T04:05:35.825Z,16.61
2022-08-03T04:10:58.946Z,16.72
2022-08-03T04:16:01.460Z,16.85
2022-08-03T04:21:04.635Z,17.10
2022-08-03T04:26:28.097Z,17.40
2022-08-03T04:31:40.053Z,18.00
2022-08-03T04:36:45.361Z,19.18
2022-08-03T04:42:07.257Z,20.42
2022-08-03T04:47:10.386Z,21.99
2022-08-03T04:52:12.422Z,22.54
2022-08-03T04:57:22.547Z,21.87
2022-08-03T05:02:28.733Z,21.09
2022-08-03T05:07:36.284Z,20.55
2022-08-03T05:13:00.081Z,21.12
2022-08-03T05:18:02.620Z,23.24
2022-08-03T05:23:04.495Z,25.16
2022-08-03T05:28:06.644Z,25.70
2022-08-03T05:33:08.503Z,25.44
2022-08-03T05:38:10.504Z,24.97
2022-08-03T05:43:12.521Z,24.62
2022-08-03T05:48:14.275Z,24.48
2022-08-03T05:53:16.703Z,24.44
2022-08-03T05:58:20.378Z,24.48
2022-08-03T06:03:22.502Z,25.12
2022-08-03T06:08:24.498Z,26.32
2022-08-03T06:13:26.413Z,27.57
2022-08-03T06:18:28.443Z,28.64
2022-08-03T06:23:54.039Z,29.41
2022-08-03T06:28:54.175Z,29.58
2022-08-03T06:34:32.954Z,29.50
2022-08-03T06:39:18.857Z,29.35
2022-08-03T06:44:21.227Z,28.70
2022-08-03T06:49:26.390Z,27.98
2022-08-03T06:54:28.375Z,27.44
2022-08-03T07:00:08.644Z,27.30
2022-08-03T07:05:12.135Z,27.18
2022-08-03T07:10:13.920Z,27.23
2022-08-03T07:15:20.621Z,27.30
2022-08-03T07:20:37.592Z,27.47
2022-08-03T07:25:39.361Z,27.90
2022-08-03T07:30:41.315Z,28.51
2022-08-03T07:35:43.189Z,29.03
2022-08-03T07:40:46.402Z,29.52
2022-08-03T07:45:48.446Z,29.84
2022-08-03T07:50:50.927Z,30.18
2022-08-03T07:55:55.119Z,30.54
2022-08-03T08:00:56.966Z,30.69
2022-08-03T08:06:05.391Z,30.75
2022-08-03T08:11:09.583Z,30.90
2022-08-03T08:16:12.322Z,30.70
2022-08-03T08:21:25.586Z,30.70
2022-08-03T08:26:47.762Z,30.76
2022-08-03T08:31:59.506Z,31.00
2022-08-03T08:37:04.411Z,31.40
2022-08-03T08:42:06.219Z,31.66
2022-08-03T08:47:08.333Z,31.53
2022-08-03T08:52:24.950Z,31.57
2022-08-03T08:57:43.287Z,31.78
2022-08-03T09:02:46.403Z,31.89
2022-08-03T09:07:48.844Z,31.74
2022-08-03T09:12:51.790Z,32.00
2022-08-03T09:17:55.700Z,32.45
2022-08-03T09:22:59.128Z,33.01
2022-08-03T09:28:05.028Z,33.56
2022-08-03T09:33:24.528Z,33.91
2022-08-03T09:38:41.092Z,33.70
2022-08-03T09:43:46.442Z,33.43
2022-08-03T09:48:48.090Z,33.33
2022-08-03T09:53:58.579Z,33.67
2022-08-03T09:59:01.663Z,34.03
2022-08-03T10:04:05.210Z,33.98
2022-08-03T10:09:07.465Z,33.77
2022-08-03T10:14:22.173Z,34.00
2022-08-03T10:19:25.722Z,34.44
2022-08-03T10:24:28.920Z,34.88
2022-08-03T10:29:40.172Z,34.86
2022-08-03T10:34:44.670Z,34.29
2022-08-03T10:39:56.492Z,33.68
2022-08-03T10:45:04.903Z,33.46
2022-08-03T10:50:07.649Z,33.95
2022-08-03T10:56:04.134Z,34.58
2022-08-03T11:01:15.368Z,34.97
2022-08-03T11:06:21.001Z,34.70
2022-08-03T11:11:24.030Z,34.78
2022-08-03T11:16:27.474Z,34.37
2022-08-03T11:21:49.216Z,33.96
2022-08-03T11:27:10.931Z,33.50
2022-08-03T11:32:38.338Z,33.25
2022-08-03T11:38:03.605Z,32.82
2022-08-03T11:43:11.143Z,33.15
2022-08-03T11:48:16.262Z,33.96
2022-08-03T11:53:19.022Z,34.20
2022-08-03T11:59:11.262Z,33.57
2022-08-03T12:03:44.071Z,33.39
2022-08-03T12:08:46.701Z,33.60
2022-08-03T12:14:44.124Z,34.09
2022-08-03T12:19:12.984Z,34.33
2022-08-03T12:24:15.491Z,34.18
2022-08-03T12:29:21.149Z,34.07
2022-08-03T12:34:22.986Z,34.01
2022-08-03T12:39:26.490Z,34.34
2022-08-03T12:44:32.165Z,34.93
2022-08-03T12:49:53.657Z,35.35
2022-08-03T12:54:56.633Z,34.99
2022-08-03T13:00:21.263Z,34.54
2022-08-03T13:05:31.899Z,34.10
2022-08-03T13:10:35.247Z,33.57
2022-08-03T13:15:38.611Z,33.41
2022-08-03T13:20:49.674Z,33.55
2022-08-03T13:25:55.063Z,33.68
2022-08-03T13:30:58.011Z,34.11
2022-08-03T13:36:00.124Z,34.38
2022-08-03T13:41:04.997Z,34.92
2022-08-03T13:46:07.137Z,35.82
2022-08-03T13:51:11.772Z,36.36
2022-08-03T13:56:24.461Z,36.89
2022-08-03T14:01:54.410Z,37.29
2022-08-03T14:17:17.065Z,37.98
2022-08-03T14:22:19.097Z,37.90
2022-08-03T14:27:28.163Z,38.07
2022-08-03T14:32:43.597Z,38.31
2022-08-03T14:37:45.804Z,38.28
2022-08-03T14:42:47.647Z,38.28
2022-08-03T14:50:31.857Z,38.15
2022-08-03T14:53:11.662Z,37.87
2022-08-03T14:58:20.019Z,36.83
2022-08-03T15:03:24.942Z,35.67
2022-08-03T15:08:27.023Z,34.83
2022-08-03T15:13:49.234Z,34.41
2022-08-03T15:19:59.626Z,34.73
2022-08-03T15:24:26.673Z,35.61
2022-08-03T15:30:07.689Z,36.46
2022-08-03T15:34:51.344Z,37.04
2022-08-03T15:39:59.887Z,37.12
2022-08-03T15:45:02.507Z,37.32
2022-08-03T15:50:09.823Z,37.61
2022-08-03T15:55:16.153Z,37.48
2022-08-03T16:00:19.540Z,37.35
2022-08-03T16:05:38.769Z,37.12
2022-08-03T16:10:40.826Z,36.76
2022-08-03T16:15:42.778Z,36.10
2022-08-03T16:20:47.773Z,35.68
2022-08-03T16:25:49.622Z,35.46
2022-08-03T16:30:51.403Z,35.31
2022-08-03T16:36:04.246Z,35.70
2022-08-03T16:41:06.158Z,36.54
2022-08-03T16:46:08.197Z,37.12
2022-08-03T16:51:13.259Z,36.97
2022-08-03T16:56:21.262Z,36.82
2022-08-03T17:01:37.665Z,36.65
2022-08-03T17:06:44.801Z,36.38
2022-08-03T17:11:48.401Z,36.61
2022-08-03T17:16:54.347Z,36.98
2022-08-03T17:22:04.801Z,36.99
2022-08-03T17:27:09.279Z,36.99
2022-08-03T17:32:33.224Z,36.45
2022-08-03T17:38:03.077Z,36.22
2022-08-03T17:44:13.249Z,36.22
2022-08-03T17:48:36.176Z,35.92
2022-08-03T17:53:45.873Z,35.37
2022-08-03T17:58:58.082Z,34.81
2022-08-03T18:04:03.225Z,34.22
2022-08-03T18:10:04.046Z,33.52
2022-08-03T18:14:57.571Z,32.59
2022-08-03T18:20:32.269Z,31.54
2022-08-03T18:25:57.738Z,30.54
2022-08-03T18:31:03.227Z,29.61
2022-08-03T18:36:08.494Z,28.75
2022-08-03T18:41:13.181Z,27.92
2022-08-03T18:46:28.661Z,27.22
2022-08-03T18:51:43.448Z,26.64
2022-08-03T18:56:55.670Z,26.06
2022-08-03T19:02:09.288Z,25.44
2022-08-03T19:07:40.245Z,24.87
2022-08-03T19:13:03.248Z,24.39
2022-08-03T19:18:22.035Z,23.86
2022-08-03T19:23:25.257Z,23.55
2022-08-03T19:28:29.594Z,23.28
2022-08-03T19:33:56.021Z,23.02
2022-08-03T19:38:56.780Z,22.77
2022-08-03T19:43:59.549Z,22.58
2022-08-03T19:49:03.981Z,22.40
2022-08-03T19:54:05.957Z,22.21
2022-08-03T19:59:32.280Z,22.00
2022-08-03T20:04:34.652Z,21.79
2022-08-03T20:09:37.527Z,21.60
2022-08-03T20:14:59.955Z,21.29
2022-08-03T20:20:02.825Z,20.96
2022-08-03T20:25:07.677Z,20.77
2022-08-03T20:30:13.343Z,20.56
2022-08-03T20:35:36.281Z,20.33
2022-08-03T20:40:44.695Z,20.06
2022-08-03T20:46:00.027Z,19.89
2022-08-03T20:51:19.387Z,19.75
2022-08-03T20:56:22.863Z,19.65
2022-08-03T21:13:13.735Z,19.40
2022-08-03T21:17:39.303Z,19.10
2022-08-03T21:22:56.632Z,18.94
2022-08-03T21:27:59.380Z,18.81
2022-08-03T21:33:01.241Z,18.71
2022-08-03T21:38:21.123Z,18.63
2022-08-03T21:43:32.315Z,18.58
2022-08-03T21:48:38.457Z,18.64
2022-08-03T21:54:02.441Z,18.68
2022-08-03T21:59:10.029Z,18.69
2022-08-03T22:04:50.706Z,18.64
2022-08-03T22:09:38.731Z,18.58
2022-08-03T22:14:40.605Z,18.52
2022-08-03T22:19:42.433Z,18.43
2022-08-03T22:24:46.535Z,18.39
2022-08-03T22:29:49.379Z,18.33
2022-08-03T22:34:52.191Z,18.26
2022-08-03T22:39:54.888Z,18.18
2022-08-03T22:44:56.763Z,18.10
2022-08-03T22:50:31.356Z,18.05
2022-08-03T22:55:24.924Z,18.03
2022-08-03T23:00:27.208Z,18.00
2022-08-03T23:06:00.653Z,17.97
2022-08-03T23:10:52.944Z,17.96
2022-08-03T23:15:56.043Z,17.93
2022-08-03T23:20:58.759Z,17.86
2022-08-03T23:26:01.252Z,17.79
2022-08-03T23:31:04.493Z,17.72
2022-08-03T23:36:29.555Z,17.62
2022-08-03T23:41:29.650Z,17.53
2022-08-03T23:46:32.770Z,17.46
2022-08-03T23:51:34.512Z,17.34
2022-08-03T23:57:00.519Z,17.24
